IBE002 GCXO-LEMD
Flight info
| Callsign | IBE002 |
|---|---|
| Flight time | N/A |
| Altitude | 40000 |
| Route | VASTO UN858 AKUDA DCT PESAS DCT PARKA Z165 SOTUK |
| Aircraft | A359/H-SDE2E3GHIJ3J4J5LM1ORWXY/LB1D1 |
Departure
| Time | 2026-04-25 02:53 |
|---|---|
| Airport | Tenerife Norte-Ciudad de La Laguna Airport (GCXO) |
Arrival
| Time | N/A |
|---|---|
| Airport | Adolfo Suárez Madrid–Barajas Airport (LEMD) |
| Time | Latitude | Longitude | Altitude | Speed | Heading |
|---|---|---|---|---|---|
| 2026-04-25 02:36 | 28.48690 | -16.34743 | 2077 ft | 0 kts | 35° |
| 2026-04-25 02:44 | 28.48687 | -16.34745 | 2077 ft | 2 kts | 36° |
| 2026-04-25 02:44 | 28.48673 | -16.34756 | 2076 ft | 2 kts | 36° |
| 2026-04-25 02:44 | 28.48660 | -16.34767 | 2077 ft | 2 kts | 35° |
| 2026-04-25 02:44 | 28.48647 | -16.34778 | 2077 ft | 2 kts | 36° |
| 2026-04-25 02:45 | 28.48633 | -16.34788 | 2076 ft | 2 kts | 34° |
| 2026-04-25 02:45 | 28.48620 | -16.34800 | 2076 ft | 2 kts | 48° |
| 2026-04-25 02:45 | 28.48611 | -16.34816 | 2078 ft | 2 kts | 77° |
| 2026-04-25 02:45 | 28.48609 | -16.34834 | 2078 ft | 2 kts | 98° |
| 2026-04-25 02:46 | 28.48613 | -16.34852 | 2078 ft | 2 kts | 112° |
| 2026-04-25 02:46 | 28.48618 | -16.34865 | 2079 ft | 0 kts | 110° |
| 2026-04-25 02:48 | 28.48615 | -16.34858 | 2079 ft | 2 kts | 109° |
| 2026-04-25 02:48 | 28.48601 | -16.34811 | 2073 ft | 10 kts | 110° |
| 2026-04-25 02:48 | 28.48570 | -16.34719 | 2073 ft | 15 kts | 110° |
| 2026-04-25 02:48 | 28.48529 | -16.34597 | 2074 ft | 18 kts | 111° |
| 2026-04-25 02:49 | 28.48479 | -16.34448 | 2071 ft | 22 kts | 111° |
| 2026-04-25 02:49 | 28.48422 | -16.34273 | 2068 ft | 25 kts | 110° |
| 2026-04-25 02:49 | 28.48357 | -16.34078 | 2064 ft | 28 kts | 110° |
| 2026-04-25 02:49 | 28.48284 | -16.33859 | 2061 ft | 31 kts | 110° |
| 2026-04-25 02:50 | 28.48204 | -16.33619 | 2056 ft | 34 kts | 110° |
| 2026-04-25 02:50 | 28.48118 | -16.33359 | 2055 ft | 36 kts | 110° |
| 2026-04-25 02:50 | 28.48044 | -16.33136 | 2053 ft | 29 kts | 110° |
| 2026-04-25 02:50 | 28.47969 | -16.32912 | 2046 ft | 30 kts | 110° |
| 2026-04-25 02:51 | 28.47907 | -16.32720 | 2048 ft | 18 kts | 110° |
| 2026-04-25 02:51 | 28.47855 | -16.32595 | 2047 ft | 14 kts | 130° |
| 2026-04-25 02:51 | 28.47798 | -16.32546 | 2046 ft | 11 kts | 157° |
| 2026-04-25 02:51 | 28.47750 | -16.32559 | 2043 ft | 5 kts | 229° |
| 2026-04-25 02:52 | 28.47746 | -16.32576 | 2047 ft | 0 kts | 276° |
| 2026-04-25 02:52 | 28.47748 | -16.32585 | 2046 ft | 11 kts | 278° |
| 2026-04-25 02:53 | 28.47856 | -16.32925 | 2048 ft | 79 kts | 291° |
| 2026-04-25 02:53 | 28.48123 | -16.33720 | 2056 ft | 134 kts | 291° |
| 2026-04-25 02:53 | 28.48486 | -16.34811 | 2445 ft | 152 kts | 292° |
| 2026-04-25 02:53 | 28.48883 | -16.35973 | 2979 ft | 162 kts | 292° |
| 2026-04-25 02:54 | 28.49298 | -16.37155 | 3658 ft | 164 kts | 294° |
| 2026-04-25 02:54 | 28.49732 | -16.38421 | 3953 ft | 181 kts | 293° |
| 2026-04-25 02:54 | 28.50206 | -16.39824 | 4181 ft | 200 kts | 292° |
| 2026-04-25 02:54 | 28.50726 | -16.41373 | 4423 ft | 219 kts | 293° |
| 2026-04-25 02:55 | 28.51308 | -16.43054 | 4664 ft | 239 kts | 295° |
| 2026-04-25 02:55 | 28.52296 | -16.44628 | 4934 ft | 252 kts | 324° |
| 2026-04-25 02:55 | 28.53920 | -16.45388 | 5435 ft | 257 kts | 347° |
| 2026-04-25 02:55 | 28.55690 | -16.45731 | 6018 ft | 261 kts | 358° |
| 2026-04-25 02:56 | 28.57486 | -16.45408 | 6617 ft | 265 kts | 21° |
| 2026-04-25 02:56 | 28.58983 | -16.44170 | 7172 ft | 271 kts | 45° |
| 2026-04-25 02:56 | 28.60206 | -16.42542 | 7705 ft | 277 kts | 49° |
| 2026-04-25 02:56 | 28.61411 | -16.40804 | 8262 ft | 282 kts | 50° |
| 2026-04-25 02:57 | 28.62634 | -16.39024 | 8823 ft | 286 kts | 50° |
| 2026-04-25 02:57 | 28.63872 | -16.37225 | 9390 ft | 291 kts | 50° |
| 2026-04-25 02:57 | 28.65132 | -16.35397 | 9962 ft | 295 kts | 49° |
| 2026-04-25 02:57 | 28.66422 | -16.33528 | 10314 ft | 307 kts | 49° |
| 2026-04-25 02:58 | 28.67757 | -16.31596 | 10525 ft | 321 kts | 50° |
| 2026-04-25 02:58 | 28.69170 | -16.29551 | 10752 ft | 335 kts | 50° |
| 2026-04-25 02:58 | 28.70641 | -16.27419 | 10957 ft | 348 kts | 50° |
| 2026-04-25 02:58 | 28.72166 | -16.25206 | 11158 ft | 361 kts | 50° |
| 2026-04-25 02:59 | 28.73740 | -16.22922 | 11430 ft | 369 kts | 50° |
| 2026-04-25 02:59 | 28.75335 | -16.20604 | 11828 ft | 373 kts | 50° |
| 2026-04-25 02:59 | 28.76923 | -16.18295 | 12250 ft | 376 kts | 50° |
| 2026-04-25 02:59 | 28.78541 | -16.15942 | 12680 ft | 378 kts | 50° |
| 2026-04-25 03:00 | 28.80170 | -16.13572 | 13116 ft | 381 kts | 50° |
| 2026-04-25 03:00 | 28.81813 | -16.11180 | 13516 ft | 384 kts | 50° |
| 2026-04-25 03:00 | 28.83467 | -16.08772 | 13933 ft | 387 kts | 50° |
| 2026-04-25 03:00 | 28.85136 | -16.06340 | 14283 ft | 389 kts | 50° |
| 2026-04-25 03:01 | 28.86811 | -16.03898 | 14622 ft | 393 kts | 50° |
| 2026-04-25 03:01 | 28.88503 | -16.01430 | 15006 ft | 395 kts | 50° |
| 2026-04-25 03:01 | 28.90180 | -15.98982 | 15407 ft | 397 kts | 50° |
| 2026-04-25 03:01 | 28.91884 | -15.96494 | 15803 ft | 399 kts | 50° |
| 2026-04-25 03:02 | 28.93599 | -15.93988 | 16200 ft | 401 kts | 50° |
| 2026-04-25 03:02 | 28.95325 | -15.91464 | 16579 ft | 404 kts | 50° |
| 2026-04-25 03:02 | 28.97056 | -15.88932 | 16976 ft | 406 kts | 51° |
| 2026-04-25 03:02 | 28.98802 | -15.86376 | 17359 ft | 408 kts | 51° |
| 2026-04-25 03:03 | 29.00553 | -15.83811 | 17739 ft | 411 kts | 51° |
| 2026-04-25 03:03 | 29.02317 | -15.81225 | 18128 ft | 413 kts | 51° |
| 2026-04-25 03:03 | 29.04093 | -15.78621 | 18501 ft | 415 kts | 51° |
| 2026-04-25 03:03 | 29.05868 | -15.76015 | 18829 ft | 418 kts | 51° |
| 2026-04-25 03:04 | 29.07658 | -15.73386 | 19160 ft | 420 kts | 51° |
| 2026-04-25 03:04 | 29.09458 | -15.70741 | 19485 ft | 422 kts | 51° |
| 2026-04-25 03:04 | 29.11242 | -15.68118 | 19811 ft | 424 kts | 51° |
| 2026-04-25 03:05 | 29.14884 | -15.62758 | 20422 ft | 429 kts | 51° |
| 2026-04-25 03:05 | 29.16726 | -15.60045 | 20696 ft | 432 kts | 51° |
| 2026-04-25 03:05 | 29.18583 | -15.57308 | 21021 ft | 434 kts | 51° |
| 2026-04-25 03:05 | 29.20437 | -15.54572 | 21353 ft | 436 kts | 51° |
| 2026-04-25 03:06 | 29.22278 | -15.51854 | 21651 ft | 438 kts | 51° |
| 2026-04-25 03:06 | 29.24147 | -15.49093 | 21929 ft | 440 kts | 51° |
| 2026-04-25 03:06 | 29.26028 | -15.46313 | 22241 ft | 442 kts | 51° |
| 2026-04-25 03:06 | 29.27916 | -15.43520 | 22535 ft | 444 kts | 51° |
| 2026-04-25 03:07 | 29.29813 | -15.40713 | 22822 ft | 446 kts | 51° |
| 2026-04-25 03:07 | 29.31718 | -15.37892 | 23101 ft | 448 kts | 52° |
| 2026-04-25 03:07 | 29.33633 | -15.35053 | 23374 ft | 450 kts | 52° |
| 2026-04-25 03:07 | 29.35554 | -15.32204 | 23647 ft | 452 kts | 52° |
| 2026-04-25 03:08 | 29.37481 | -15.29344 | 23890 ft | 454 kts | 52° |
| 2026-04-25 03:08 | 29.39414 | -15.26472 | 24131 ft | 456 kts | 52° |
| 2026-04-25 03:08 | 29.41354 | -15.23589 | 24372 ft | 457 kts | 52° |
| 2026-04-25 03:08 | 29.43287 | -15.20713 | 24622 ft | 459 kts | 52° |
| 2026-04-25 03:09 | 29.45241 | -15.17806 | 24871 ft | 460 kts | 52° |
| 2026-04-25 03:09 | 29.47204 | -15.14882 | 25119 ft | 461 kts | 52° |
| 2026-04-25 03:09 | 29.49155 | -15.11973 | 25367 ft | 463 kts | 52° |
| 2026-04-25 03:09 | 29.51127 | -15.09032 | 25618 ft | 464 kts | 52° |
| 2026-04-25 03:10 | 29.53098 | -15.06091 | 25870 ft | 466 kts | 52° |
| 2026-04-25 03:10 | 29.55062 | -15.03157 | 26126 ft | 467 kts | 52° |
| 2026-04-25 03:10 | 29.57043 | -15.00196 | 26379 ft | 469 kts | 52° |
| 2026-04-25 03:10 | 29.59033 | -14.97219 | 26646 ft | 470 kts | 52° |
| 2026-04-25 03:11 | 29.61048 | -14.94203 | 26921 ft | 472 kts | 52° |
| 2026-04-25 03:11 | 29.63042 | -14.91216 | 27185 ft | 474 kts | 53° |
| 2026-04-25 03:11 | 29.65054 | -14.88200 | 27461 ft | 476 kts | 53° |
| 2026-04-25 03:11 | 29.67046 | -14.85211 | 27754 ft | 477 kts | 53° |
| 2026-04-25 03:12 | 29.69084 | -14.82151 | 28057 ft | 479 kts | 53° |
| 2026-04-25 03:12 | 29.71108 | -14.79110 | 28378 ft | 481 kts | 53° |
| 2026-04-25 03:12 | 29.73129 | -14.76072 | 28680 ft | 483 kts | 53° |
| 2026-04-25 03:12 | 29.75180 | -14.72986 | 28981 ft | 484 kts | 53° |
| 2026-04-25 03:13 | 29.77229 | -14.69900 | 29268 ft | 486 kts | 53° |
| 2026-04-25 03:13 | 29.79274 | -14.66818 | 29599 ft | 488 kts | 53° |
| 2026-04-25 03:13 | 29.81337 | -14.63707 | 29915 ft | 490 kts | 53° |
| 2026-04-25 03:13 | 29.83408 | -14.60581 | 30220 ft | 493 kts | 53° |
| 2026-04-25 03:14 | 29.85514 | -14.57400 | 30494 ft | 494 kts | 53° |
| 2026-04-25 03:14 | 29.87590 | -14.54261 | 30782 ft | 496 kts | 53° |
| 2026-04-25 03:14 | 29.89696 | -14.51075 | 31045 ft | 498 kts | 53° |
| 2026-04-25 03:14 | 29.91778 | -14.47922 | 31332 ft | 500 kts | 53° |
| 2026-04-25 03:15 | 29.93889 | -14.44724 | 31622 ft | 501 kts | 53° |
| 2026-04-25 03:15 | 29.95987 | -14.41543 | 31877 ft | 504 kts | 53° |
| 2026-04-25 03:15 | 29.98120 | -14.38306 | 32131 ft | 505 kts | 53° |
| 2026-04-25 03:15 | 30.00251 | -14.35068 | 32366 ft | 507 kts | 53° |
| 2026-04-25 03:16 | 30.02395 | -14.31810 | 32620 ft | 509 kts | 53° |
| 2026-04-25 03:16 | 30.04515 | -14.28586 | 32879 ft | 510 kts | 53° |
| 2026-04-25 03:16 | 30.06655 | -14.25327 | 33211 ft | 509 kts | 53° |
| 2026-04-25 03:16 | 30.08802 | -14.22056 | 33607 ft | 507 kts | 53° |
| 2026-04-25 03:17 | 30.10947 | -14.18785 | 33890 ft | 508 kts | 53° |
| 2026-04-25 03:17 | 30.13070 | -14.15545 | 34179 ft | 508 kts | 53° |
| 2026-04-25 03:17 | 30.15180 | -14.12322 | 34478 ft | 507 kts | 53° |
| 2026-04-25 03:17 | 30.17325 | -14.09043 | 34700 ft | 509 kts | 53° |
| 2026-04-25 03:18 | 30.19453 | -14.05787 | 34952 ft | 509 kts | 53° |
| 2026-04-25 03:18 | 30.21585 | -14.02522 | 35290 ft | 507 kts | 53° |
| 2026-04-25 03:18 | 30.23706 | -13.99272 | 35575 ft | 507 kts | 52° |
| 2026-04-25 03:18 | 30.25844 | -13.95993 | 35815 ft | 507 kts | 52° |
| 2026-04-25 03:19 | 30.27946 | -13.92767 | 36033 ft | 509 kts | 52° |
| 2026-04-25 03:19 | 30.30073 | -13.89500 | 36252 ft | 510 kts | 52° |
| 2026-04-25 03:19 | 30.32209 | -13.86216 | 36472 ft | 511 kts | 52° |
| 2026-04-25 03:19 | 30.34348 | -13.82926 | 36630 ft | 513 kts | 52° |
| 2026-04-25 03:20 | 30.36517 | -13.79585 | 36856 ft | 514 kts | 52° |
| 2026-04-25 03:20 | 30.38662 | -13.76279 | 37087 ft | 515 kts | 52° |
| 2026-04-25 03:20 | 30.40791 | -13.72996 | 37314 ft | 515 kts | 52° |
| 2026-04-25 03:20 | 30.42954 | -13.69656 | 37540 ft | 516 kts | 52° |
| 2026-04-25 03:21 | 30.45114 | -13.66319 | 37766 ft | 517 kts | 51° |
| 2026-04-25 03:21 | 30.47274 | -13.62978 | 37993 ft | 517 kts | 51° |
| 2026-04-25 03:21 | 30.49440 | -13.59715 | 38198 ft | 517 kts | 48° |
| 2026-04-25 03:21 | 30.51942 | -13.56728 | 38391 ft | 515 kts | 38° |
| 2026-04-25 03:22 | 30.54727 | -13.54145 | 38642 ft | 513 kts | 34° |
| 2026-04-25 03:22 | 30.57661 | -13.51706 | 38851 ft | 512 kts | 32° |
| 2026-04-25 03:22 | 30.60570 | -13.49415 | 39041 ft | 511 kts | 31° |
| 2026-04-25 03:22 | 30.63559 | -13.47103 | 39181 ft | 512 kts | 30° |
| 2026-04-25 03:23 | 30.66516 | -13.44814 | 39342 ft | 512 kts | 31° |
| 2026-04-25 03:23 | 30.69438 | -13.42532 | 39526 ft | 512 kts | 31° |
| 2026-04-25 03:23 | 30.72388 | -13.40205 | 39701 ft | 512 kts | 31° |
| 2026-04-25 03:23 | 30.75330 | -13.37868 | 39858 ft | 512 kts | 31° |
| 2026-04-25 03:24 | 30.78265 | -13.35525 | 40021 ft | 512 kts | 31° |
| 2026-04-25 03:24 | 30.81205 | -13.33173 | 40065 ft | 513 kts | 31° |
| 2026-04-25 03:24 | 30.87096 | -13.28449 | 40081 ft | 512 kts | 31° |
| 2026-04-25 03:25 | 30.92976 | -13.23732 | 40079 ft | 512 kts | 31° |
| 2026-04-25 03:25 | 30.98867 | -13.19048 | 40080 ft | 512 kts | 31° |
| 2026-04-25 03:26 | 31.04738 | -13.14387 | 40079 ft | 512 kts | 31° |
| 2026-04-25 03:26 | 31.10622 | -13.09706 | 40082 ft | 512 kts | 31° |
| 2026-04-25 03:27 | 31.16529 | -13.04995 | 40082 ft | 512 kts | 31° |
| 2026-04-25 03:27 | 31.22405 | -13.00299 | 40080 ft | 512 kts | 31° |
| 2026-04-25 03:28 | 31.27274 | -12.96403 | 40078 ft | 512 kts | 31° |
| 2026-04-25 03:28 | 31.34121 | -12.90917 | 40078 ft | 512 kts | 31° |
| 2026-04-25 03:29 | 31.39039 | -12.86970 | 40080 ft | 512 kts | 31° |
| 2026-04-25 03:29 | 31.44910 | -12.82251 | 40083 ft | 512 kts | 31° |
| 2026-04-25 03:30 | 31.50749 | -12.77550 | 40084 ft | 511 kts | 31° |
| 2026-04-25 03:30 | 31.56625 | -12.72812 | 40081 ft | 510 kts | 31° |
| 2026-04-25 03:31 | 31.62457 | -12.68104 | 40081 ft | 510 kts | 31° |
| 2026-04-25 03:31 | 31.68304 | -12.63375 | 40083 ft | 510 kts | 31° |
| 2026-04-25 03:32 | 31.74155 | -12.58636 | 40089 ft | 510 kts | 31° |
| 2026-04-25 03:32 | 31.79950 | -12.53935 | 40082 ft | 509 kts | 31° |
| 2026-04-25 03:33 | 31.85784 | -12.49194 | 40084 ft | 509 kts | 31° |
| 2026-04-25 03:33 | 31.91641 | -12.44428 | 40083 ft | 509 kts | 31° |
| 2026-04-25 03:34 | 31.97419 | -12.39719 | 40085 ft | 509 kts | 31° |
| 2026-04-25 03:34 | 32.03264 | -12.34965 | 40093 ft | 507 kts | 31° |
| 2026-04-25 03:35 | 32.09040 | -12.30262 | 40079 ft | 507 kts | 31° |
| 2026-04-25 03:35 | 32.14868 | -12.25509 | 40088 ft | 507 kts | 31° |
| 2026-04-25 03:36 | 32.20659 | -12.20778 | 40083 ft | 506 kts | 31° |
| 2026-04-25 03:36 | 32.26414 | -12.16069 | 40087 ft | 506 kts | 31° |
| 2026-04-25 03:37 | 32.32239 | -12.11295 | 40080 ft | 506 kts | 31° |
| 2026-04-25 03:37 | 32.37979 | -12.06583 | 40088 ft | 506 kts | 31° |
| 2026-04-25 03:38 | 32.43752 | -12.01836 | 40086 ft | 505 kts | 31° |
| 2026-04-25 03:38 | 32.49545 | -11.97067 | 40086 ft | 505 kts | 31° |
| 2026-04-25 03:39 | 32.55294 | -11.92326 | 40088 ft | 505 kts | 31° |
| 2026-04-25 03:39 | 32.61077 | -11.87548 | 40096 ft | 505 kts | 31° |
| 2026-04-25 03:40 | 32.66822 | -11.82794 | 40088 ft | 504 kts | 31° |
| 2026-04-25 03:40 | 32.72593 | -11.78012 | 40088 ft | 504 kts | 31° |
| 2026-04-25 03:41 | 32.78326 | -11.73254 | 40087 ft | 504 kts | 31° |
| 2026-04-25 03:41 | 32.84070 | -11.68478 | 40088 ft | 504 kts | 31° |
| 2026-04-25 03:42 | 32.89811 | -11.63697 | 40088 ft | 504 kts | 31° |
| 2026-04-25 03:42 | 32.95576 | -11.58888 | 40089 ft | 504 kts | 31° |
| 2026-04-25 03:43 | 33.01311 | -11.54098 | 40087 ft | 504 kts | 32° |
| 2026-04-25 03:43 | 33.07061 | -11.49286 | 40087 ft | 504 kts | 32° |
| 2026-04-25 03:44 | 33.12791 | -11.44483 | 40088 ft | 504 kts | 32° |
| 2026-04-25 03:44 | 33.18501 | -11.39690 | 40092 ft | 504 kts | 32° |
| 2026-04-25 03:45 | 33.24252 | -11.34827 | 40087 ft | 504 kts | 32° |
| 2026-04-25 03:45 | 33.29918 | -11.30010 | 40085 ft | 503 kts | 32° |
| 2026-04-25 03:46 | 33.35655 | -11.25129 | 40090 ft | 502 kts | 32° |
| 2026-04-25 03:46 | 33.41317 | -11.20308 | 40089 ft | 502 kts | 32° |
| 2026-04-25 03:47 | 33.47012 | -11.15453 | 40087 ft | 502 kts | 32° |
| 2026-04-25 03:47 | 33.52699 | -11.10597 | 40091 ft | 501 kts | 32° |
| 2026-04-25 03:48 | 33.58390 | -11.05729 | 40094 ft | 501 kts | 32° |
| 2026-04-25 03:48 | 33.64031 | -11.00896 | 40081 ft | 501 kts | 32° |
| 2026-04-25 03:49 | 33.69733 | -10.96002 | 40081 ft | 501 kts | 32° |
| 2026-04-25 03:49 | 33.75384 | -10.91143 | 40088 ft | 500 kts | 32° |
| 2026-04-25 03:50 | 33.81013 | -10.86295 | 40083 ft | 499 kts | 32° |
| 2026-04-25 03:50 | 33.86671 | -10.81416 | 40086 ft | 499 kts | 32° |
| 2026-04-25 03:51 | 33.92311 | -10.76544 | 40086 ft | 499 kts | 32° |
| 2026-04-25 03:51 | 33.97974 | -10.71643 | 40086 ft | 499 kts | 32° |
| 2026-04-25 03:52 | 34.03610 | -10.66757 | 40086 ft | 498 kts | 32° |
| 2026-04-25 03:52 | 34.09187 | -10.61914 | 40086 ft | 498 kts | 32° |
| 2026-04-25 03:53 | 34.14835 | -10.57002 | 40088 ft | 497 kts | 32° |
| 2026-04-25 03:53 | 34.20420 | -10.52136 | 40088 ft | 496 kts | 32° |
| 2026-04-25 03:54 | 34.26014 | -10.47255 | 40086 ft | 495 kts | 32° |
| 2026-04-25 03:54 | 34.31608 | -10.42366 | 40088 ft | 495 kts | 32° |
| 2026-04-25 03:55 | 34.37183 | -10.37483 | 40086 ft | 495 kts | 32° |
| 2026-04-25 03:55 | 34.42720 | -10.32627 | 40088 ft | 495 kts | 32° |
| 2026-04-25 03:56 | 34.48316 | -10.27712 | 40086 ft | 495 kts | 32° |
| 2026-04-25 03:56 | 34.53885 | -10.22811 | 40088 ft | 495 kts | 32° |
| 2026-04-25 03:57 | 34.59444 | -10.17910 | 40092 ft | 494 kts | 31° |
| 2026-04-25 03:57 | 34.64986 | -10.13026 | 40088 ft | 493 kts | 31° |
| 2026-04-25 03:58 | 34.70524 | -10.08162 | 40089 ft | 493 kts | 31° |
| 2026-04-25 03:58 | 34.76097 | -10.03260 | 40091 ft | 493 kts | 31° |
| 2026-04-25 03:59 | 34.81624 | -9.98388 | 40089 ft | 493 kts | 31° |
| 2026-04-25 03:59 | 34.87165 | -9.93493 | 40090 ft | 492 kts | 31° |
| 2026-04-25 04:00 | 34.92721 | -9.88575 | 40091 ft | 490 kts | 31° |
| 2026-04-25 04:00 | 34.98244 | -9.83681 | 40091 ft | 490 kts | 31° |
| 2026-04-25 04:01 | 35.03751 | -9.78792 | 40089 ft | 489 kts | 31° |
| 2026-04-25 04:01 | 35.09218 | -9.73930 | 40088 ft | 489 kts | 31° |
| 2026-04-25 04:02 | 35.14714 | -9.69033 | 40091 ft | 487 kts | 31° |
| 2026-04-25 04:02 | 35.20166 | -9.64167 | 40087 ft | 486 kts | 31° |
| 2026-04-25 04:03 | 35.25629 | -9.59285 | 40084 ft | 486 kts | 31° |
| 2026-04-25 04:03 | 35.31075 | -9.54410 | 40087 ft | 486 kts | 31° |
| 2026-04-25 04:04 | 35.36534 | -9.49513 | 40087 ft | 486 kts | 31° |
| 2026-04-25 04:04 | 35.41984 | -9.44617 | 40096 ft | 484 kts | 32° |
| 2026-04-25 04:05 | 35.47368 | -9.39769 | 40086 ft | 482 kts | 32° |
| 2026-04-25 04:05 | 35.52783 | -9.34887 | 40086 ft | 481 kts | 32° |
| 2026-04-25 04:06 | 35.58155 | -9.30037 | 40086 ft | 481 kts | 32° |
| 2026-04-25 04:06 | 35.63556 | -9.25152 | 40089 ft | 481 kts | 32° |
| 2026-04-25 04:07 | 35.68940 | -9.20273 | 40087 ft | 481 kts | 32° |
| 2026-04-25 04:07 | 35.74329 | -9.15382 | 40086 ft | 481 kts | 32° |
| 2026-04-25 04:08 | 35.79729 | -9.10471 | 40086 ft | 481 kts | 32° |
| 2026-04-25 04:08 | 35.85087 | -9.05590 | 40082 ft | 480 kts | 32° |
| 2026-04-25 04:09 | 35.90428 | -9.00716 | 40081 ft | 478 kts | 32° |
| 2026-04-25 04:09 | 35.95742 | -8.95717 | 40085 ft | 481 kts | 37° |
| 2026-04-25 04:10 | 36.00383 | -8.89734 | 40083 ft | 485 kts | 44° |
| 2026-04-25 04:10 | 36.04808 | -8.83442 | 40083 ft | 485 kts | 45° |
| 2026-04-25 04:11 | 36.11375 | -8.73929 | 40077 ft | 485 kts | 45° |
| 2026-04-25 04:12 | 36.15757 | -8.67595 | 40085 ft | 486 kts | 45° |
| 2026-04-25 04:12 | 36.20172 | -8.61222 | 40075 ft | 487 kts | 45° |
| 2026-04-25 04:13 | 36.24570 | -8.54862 | 40081 ft | 487 kts | 45° |
| 2026-04-25 04:13 | 36.28967 | -8.48492 | 40072 ft | 487 kts | 45° |
| 2026-04-25 04:14 | 36.33354 | -8.42122 | 40075 ft | 487 kts | 45° |
| 2026-04-25 04:14 | 36.37759 | -8.35715 | 40074 ft | 487 kts | 45° |
| 2026-04-25 04:15 | 36.42144 | -8.29325 | 40075 ft | 490 kts | 45° |
| 2026-04-25 04:15 | 36.46586 | -8.22843 | 40082 ft | 492 kts | 45° |
| 2026-04-25 04:16 | 36.50256 | -8.17472 | 40075 ft | 491 kts | 45° |
| 2026-04-25 04:16 | 36.55404 | -8.09926 | 40073 ft | 491 kts | 45° |
| 2026-04-25 04:17 | 36.59083 | -8.04524 | 40071 ft | 491 kts | 45° |
| 2026-04-25 04:17 | 36.63497 | -7.98030 | 40070 ft | 491 kts | 45° |
| 2026-04-25 04:18 | 36.67900 | -7.91541 | 40070 ft | 491 kts | 45° |
| 2026-04-25 04:18 | 36.72301 | -7.85043 | 40071 ft | 491 kts | 45° |
| 2026-04-25 04:19 | 36.76721 | -7.78503 | 40071 ft | 490 kts | 45° |
| 2026-04-25 04:19 | 36.81095 | -7.72017 | 40068 ft | 490 kts | 45° |
| 2026-04-25 04:20 | 36.85475 | -7.65512 | 40070 ft | 490 kts | 45° |
| 2026-04-25 04:20 | 36.89873 | -7.58966 | 40076 ft | 490 kts | 45° |
| 2026-04-25 04:21 | 36.94213 | -7.52493 | 40069 ft | 489 kts | 45° |
| 2026-04-25 04:21 | 36.98577 | -7.45972 | 40069 ft | 489 kts | 45° |
| 2026-04-25 04:22 | 37.02981 | -7.39467 | 40064 ft | 486 kts | 42° |
| 2026-04-25 04:22 | 37.07876 | -7.33710 | 40067 ft | 482 kts | 37° |
| 2026-04-25 04:23 | 37.12906 | -7.28150 | 40066 ft | 482 kts | 37° |
| 2026-04-25 04:23 | 37.17943 | -7.22636 | 40067 ft | 482 kts | 37° |
| 2026-04-25 04:24 | 37.22995 | -7.17085 | 40070 ft | 480 kts | 37° |
| 2026-04-25 04:24 | 37.28006 | -7.11554 | 40070 ft | 479 kts | 38° |
| 2026-04-25 04:25 | 37.32969 | -7.06060 | 40067 ft | 479 kts | 38° |
| 2026-04-25 04:25 | 37.37972 | -7.00511 | 40067 ft | 479 kts | 38° |
| 2026-04-25 04:26 | 37.42974 | -6.94953 | 40067 ft | 479 kts | 38° |
| 2026-04-25 04:26 | 37.47966 | -6.89397 | 40067 ft | 479 kts | 38° |
| 2026-04-25 04:27 | 37.52971 | -6.83817 | 40084 ft | 479 kts | 38° |
| 2026-04-25 04:27 | 37.57948 | -6.78256 | 40068 ft | 478 kts | 38° |
| 2026-04-25 04:28 | 37.62911 | -6.72701 | 40073 ft | 478 kts | 38° |
| 2026-04-25 04:28 | 37.67873 | -6.67136 | 40076 ft | 478 kts | 38° |
| 2026-04-25 04:29 | 37.72848 | -6.61547 | 40081 ft | 478 kts | 38° |
| 2026-04-25 04:29 | 37.77816 | -6.55956 | 40089 ft | 479 kts | 39° |
| 2026-04-25 04:30 | 37.82789 | -6.50348 | 40085 ft | 478 kts | 39° |
| 2026-04-25 04:30 | 37.87748 | -6.44746 | 40094 ft | 478 kts | 39° |
| 2026-04-25 04:31 | 37.92716 | -6.39122 | 40084 ft | 478 kts | 39° |
| 2026-04-25 04:31 | 37.97677 | -6.33496 | 40086 ft | 478 kts | 39° |
| 2026-04-25 04:32 | 38.02614 | -6.27886 | 40092 ft | 478 kts | 39° |
| 2026-04-25 04:32 | 38.07562 | -6.22254 | 40083 ft | 478 kts | 39° |
| 2026-04-25 04:33 | 38.12492 | -6.16631 | 40085 ft | 478 kts | 39° |
| 2026-04-25 04:33 | 38.17458 | -6.10956 | 40085 ft | 478 kts | 39° |
| 2026-04-25 04:34 | 38.22420 | -6.05276 | 40077 ft | 479 kts | 40° |
| 2026-04-25 04:34 | 38.27337 | -5.99635 | 40078 ft | 479 kts | 40° |
| 2026-04-25 04:35 | 38.32294 | -5.93938 | 40077 ft | 479 kts | 40° |
| 2026-04-25 04:35 | 38.37234 | -5.88250 | 40079 ft | 479 kts | 40° |
| 2026-04-25 04:36 | 38.42171 | -5.82554 | 40077 ft | 479 kts | 40° |
| 2026-04-25 04:36 | 38.47102 | -5.76855 | 40080 ft | 479 kts | 40° |
| 2026-04-25 04:37 | 38.52039 | -5.71137 | 40082 ft | 479 kts | 40° |
| 2026-04-25 04:37 | 38.56962 | -5.65425 | 40084 ft | 476 kts | 40° |
| 2026-04-25 04:38 | 38.61856 | -5.59734 | 40083 ft | 475 kts | 41° |
| 2026-04-25 04:38 | 38.66734 | -5.54051 | 40080 ft | 475 kts | 41° |
| 2026-04-25 04:39 | 38.71627 | -5.48341 | 40082 ft | 475 kts | 41° |
| 2026-04-25 04:39 | 38.76487 | -5.42658 | 40083 ft | 475 kts | 41° |
| 2026-04-25 04:40 | 38.81371 | -5.36936 | 40081 ft | 475 kts | 41° |
| 2026-04-25 04:40 | 38.86249 | -5.31210 | 40085 ft | 476 kts | 41° |
| 2026-04-25 04:41 | 38.91155 | -5.25440 | 40082 ft | 477 kts | 41° |
| 2026-04-25 04:41 | 38.96042 | -5.19679 | 40083 ft | 478 kts | 41° |
| 2026-04-25 04:42 | 39.00574 | -5.13475 | 40085 ft | 480 kts | 53° |
| 2026-04-25 04:42 | 39.04255 | -5.06312 | 40083 ft | 480 kts | 56° |
| 2026-04-25 04:43 | 39.07754 | -4.99030 | 40086 ft | 480 kts | 57° |
| 2026-04-25 04:43 | 39.11260 | -4.91650 | 40088 ft | 481 kts | 58° |
| 2026-04-25 04:44 | 39.14764 | -4.84300 | 40092 ft | 482 kts | 57° |
| 2026-04-25 04:44 | 39.18275 | -4.76948 | 40092 ft | 482 kts | 57° |
| 2026-04-25 04:45 | 39.21798 | -4.69561 | 40090 ft | 482 kts | 57° |
| 2026-04-25 04:45 | 39.25287 | -4.62239 | 40092 ft | 483 kts | 57° |
| 2026-04-25 04:46 | 39.28806 | -4.54867 | 40090 ft | 483 kts | 57° |
| 2026-04-25 04:46 | 39.32379 | -4.47484 | 40097 ft | 484 kts | 58° |
| 2026-04-25 04:47 | 39.35953 | -4.40101 | 40094 ft | 484 kts | 57° |
| 2026-04-25 04:47 | 39.39517 | -4.32727 | 40094 ft | 485 kts | 58° |
| 2026-04-25 04:48 | 39.43087 | -4.25334 | 40096 ft | 485 kts | 58° |
| 2026-04-25 04:48 | 39.46658 | -4.17929 | 40097 ft | 485 kts | 57° |
| 2026-04-25 04:49 | 39.50206 | -4.10562 | 40095 ft | 484 kts | 58° |
| 2026-04-25 04:49 | 39.53797 | -4.03141 | 40096 ft | 485 kts | 58° |
| 2026-04-25 04:50 | 39.57388 | -3.95744 | 40099 ft | 486 kts | 58° |
| 2026-04-25 04:50 | 39.60972 | -3.88354 | 40102 ft | 486 kts | 58° |
| 2026-04-25 04:51 | 39.64575 | -3.80923 | 40098 ft | 486 kts | 58° |
| 2026-04-25 04:51 | 39.68252 | -3.73524 | 40099 ft | 487 kts | 57° |
| 2026-04-25 04:52 | 39.71919 | -3.66166 | 40102 ft | 487 kts | 58° |
| 2026-04-25 04:52 | 39.75592 | -3.58789 | 40103 ft | 487 kts | 58° |
| 2026-04-25 04:53 | 39.79257 | -3.51391 | 40102 ft | 488 kts | 58° |
| 2026-04-25 04:53 | 39.82925 | -3.43965 | 40107 ft | 488 kts | 58° |
| 2026-04-25 04:54 | 39.86627 | -3.36542 | 40107 ft | 487 kts | 58° |
| 2026-04-25 04:54 | 39.90302 | -3.29202 | 40113 ft | 486 kts | 58° |
| 2026-04-25 04:55 | 39.94004 | -3.21797 | 40113 ft | 486 kts | 58° |
| 2026-04-25 04:55 | 39.97680 | -3.14433 | 40118 ft | 486 kts | 58° |
| 2026-04-25 04:56 | 40.01362 | -3.07001 | 40117 ft | 487 kts | 58° |
| 2026-04-25 04:56 | 40.05057 | -2.99561 | 40116 ft | 488 kts | 58° |
| 2026-04-25 04:57 | 40.08774 | -2.92165 | 40118 ft | 488 kts | 58° |
| 2026-04-25 04:57 | 40.12492 | -2.84756 | 40117 ft | 488 kts | 58° |
| 2026-04-25 04:58 | 40.16209 | -2.77342 | 40115 ft | 488 kts | 58° |
| 2026-04-25 04:58 | 40.19917 | -2.69932 | 40116 ft | 488 kts | 58° |
| 2026-04-25 04:59 | 40.23644 | -2.62483 | 40115 ft | 488 kts | 58° |
| 2026-04-25 04:59 | 40.27351 | -2.55015 | 40116 ft | 489 kts | 58° |
| 2026-04-25 05:00 | 40.31042 | -2.47563 | 40116 ft | 489 kts | 58° |
| 2026-04-25 05:00 | 40.34754 | -2.40053 | 40118 ft | 489 kts | 58° |
| 2026-04-25 05:01 | 40.38442 | -2.32582 | 40117 ft | 489 kts | 58° |
| 2026-04-25 05:01 | 40.42143 | -2.25096 | 40118 ft | 489 kts | 58° |
| 2026-04-25 05:02 | 40.45865 | -2.17610 | 40121 ft | 489 kts | 58° |
| 2026-04-25 05:02 | 40.49548 | -2.10117 | 40123 ft | 489 kts | 58° |
| 2026-04-25 05:03 | 40.53218 | -2.02622 | 40125 ft | 489 kts | 58° |
| 2026-04-25 05:03 | 40.56294 | -1.96335 | 40128 ft | 489 kts | 58° |
| 2026-04-25 05:04 | 40.59962 | -1.88825 | 40129 ft | 489 kts | 58° |
| 2026-04-25 05:04 | 40.64230 | -1.80070 | 40133 ft | 488 kts | 58° |
| 2026-04-25 05:05 | 40.67901 | -1.72530 | 40133 ft | 488 kts | 58° |
| 2026-04-25 05:05 | 40.70960 | -1.66237 | 40135 ft | 488 kts | 58° |
| 2026-04-25 05:06 | 40.74620 | -1.58697 | 40132 ft | 488 kts | 58° |
| 2026-04-25 05:06 | 40.78276 | -1.51158 | 40128 ft | 488 kts | 58° |
| 2026-04-25 05:07 | 40.81919 | -1.43634 | 40133 ft | 488 kts | 58° |
| 2026-04-25 05:07 | 40.85575 | -1.36076 | 40132 ft | 488 kts | 58° |
| 2026-04-25 05:08 | 40.89214 | -1.28544 | 40132 ft | 488 kts | 58° |
| 2026-04-25 05:08 | 40.92843 | -1.20959 | 40135 ft | 487 kts | 58° |
| 2026-04-25 05:09 | 40.96441 | -1.13346 | 40132 ft | 486 kts | 58° |
| 2026-04-25 05:09 | 41.00017 | -1.05778 | 40138 ft | 487 kts | 58° |
| 2026-04-25 05:10 | 41.03616 | -0.98153 | 40137 ft | 487 kts | 58° |
| 2026-04-25 05:10 | 41.07203 | -0.90546 | 40135 ft | 487 kts | 58° |
| 2026-04-25 05:11 | 41.10789 | -0.82929 | 40132 ft | 487 kts | 58° |
| 2026-04-25 05:11 | 41.14361 | -0.75321 | 40127 ft | 487 kts | 58° |
| 2026-04-25 05:12 | 41.19714 | -0.63833 | 40133 ft | 486 kts | 58° |
| 2026-04-25 05:12 | 41.23262 | -0.56205 | 40130 ft | 486 kts | 58° |
| 2026-04-25 05:13 | 41.26807 | -0.48573 | 40126 ft | 486 kts | 58° |
| 2026-04-25 05:13 | 41.30370 | -0.40891 | 40127 ft | 486 kts | 58° |
| 2026-04-25 05:14 | 41.33911 | -0.33246 | 40127 ft | 486 kts | 58° |
| 2026-04-25 05:15 | 41.39204 | -0.21814 | 40127 ft | 485 kts | 59° |
| 2026-04-25 05:15 | 41.42749 | -0.14152 | 40126 ft | 485 kts | 59° |
| 2026-04-25 05:16 | 41.46292 | -0.06485 | 40126 ft | 485 kts | 59° |
| 2026-04-25 05:16 | 41.49807 | 0.01132 | 40122 ft | 485 kts | 59° |
| 2026-04-25 05:17 | 41.53343 | 0.08781 | 40131 ft | 485 kts | 59° |
| 2026-04-25 05:17 | 41.56899 | 0.16470 | 40130 ft | 484 kts | 59° |
| 2026-04-25 05:18 | 41.60432 | 0.24110 | 40129 ft | 484 kts | 59° |
| 2026-04-25 05:18 | 41.63966 | 0.31757 | 40131 ft | 484 kts | 59° |
| 2026-04-25 05:19 | 41.67523 | 0.39464 | 40128 ft | 484 kts | 59° |
| 2026-04-25 05:19 | 41.71037 | 0.47089 | 40129 ft | 485 kts | 59° |
| 2026-04-25 05:20 | 41.74578 | 0.54782 | 40129 ft | 485 kts | 59° |
| 2026-04-25 05:20 | 41.78114 | 0.62476 | 40129 ft | 485 kts | 59° |
| 2026-04-25 05:21 | 41.81649 | 0.70171 | 40130 ft | 485 kts | 59° |
| 2026-04-25 05:21 | 41.85202 | 0.77915 | 40128 ft | 485 kts | 59° |
| 2026-04-25 05:22 | 41.88731 | 0.85613 | 40131 ft | 485 kts | 59° |
| 2026-04-25 05:22 | 41.92246 | 0.93294 | 40129 ft | 485 kts | 59° |
| 2026-04-25 05:23 | 41.95790 | 1.01046 | 40128 ft | 485 kts | 59° |
| 2026-04-25 05:23 | 41.99296 | 1.08732 | 40130 ft | 485 kts | 59° |
| 2026-04-25 05:24 | 42.02836 | 1.16513 | 40128 ft | 485 kts | 59° |
| 2026-04-25 05:24 | 42.06315 | 1.24207 | 40136 ft | 485 kts | 59° |
| 2026-04-25 05:25 | 42.09814 | 1.31961 | 40127 ft | 485 kts | 59° |
| 2026-04-25 05:25 | 42.13332 | 1.39766 | 40127 ft | 485 kts | 59° |
| 2026-04-25 05:26 | 42.16814 | 1.47500 | 40126 ft | 485 kts | 59° |
| 2026-04-25 05:26 | 42.20300 | 1.55264 | 40148 ft | 485 kts | 59° |
| 2026-04-25 05:27 | 42.23778 | 1.63077 | 40131 ft | 486 kts | 59° |
| 2026-04-25 05:27 | 42.27251 | 1.70887 | 40139 ft | 486 kts | 59° |
| 2026-04-25 05:28 | 42.30751 | 1.78770 | 40154 ft | 486 kts | 59° |
| 2026-04-25 05:28 | 42.34230 | 1.86618 | 40152 ft | 486 kts | 59° |
| 2026-04-25 05:29 | 42.37682 | 1.94426 | 40131 ft | 487 kts | 59° |
| 2026-04-25 05:29 | 42.41147 | 2.02310 | 40126 ft | 487 kts | 59° |
| 2026-04-25 05:30 | 42.44596 | 2.10192 | 40145 ft | 488 kts | 59° |
| 2026-04-25 05:30 | 42.48060 | 2.18120 | 40116 ft | 488 kts | 59° |
| 2026-04-25 05:31 | 42.51511 | 2.26026 | 40119 ft | 487 kts | 59° |
| 2026-04-25 05:31 | 42.54940 | 2.33923 | 40122 ft | 489 kts | 59° |
| 2026-04-25 05:32 | 42.58368 | 2.41874 | 40124 ft | 489 kts | 59° |
| 2026-04-25 05:32 | 42.61813 | 2.49869 | 40118 ft | 488 kts | 59° |
| 2026-04-25 05:33 | 42.65217 | 2.57778 | 40112 ft | 487 kts | 59° |
| 2026-04-25 05:33 | 42.68640 | 2.65742 | 40123 ft | 487 kts | 59° |
| 2026-04-25 05:34 | 42.72055 | 2.73712 | 40109 ft | 486 kts | 59° |
| 2026-04-25 05:34 | 42.75441 | 2.81630 | 40134 ft | 486 kts | 59° |
| 2026-04-25 05:35 | 42.78862 | 2.89640 | 40117 ft | 486 kts | 59° |
| 2026-04-25 05:35 | 42.82242 | 2.97562 | 40131 ft | 486 kts | 59° |
| 2026-04-25 05:36 | 42.85654 | 3.05570 | 40126 ft | 486 kts | 59° |
| 2026-04-25 05:36 | 42.89019 | 3.13519 | 40124 ft | 487 kts | 59° |
| 2026-04-25 05:37 | 42.92392 | 3.21512 | 40115 ft | 487 kts | 59° |
| 2026-04-25 05:37 | 42.95771 | 3.29527 | 40117 ft | 487 kts | 59° |
| 2026-04-25 05:38 | 42.99137 | 3.37522 | 40122 ft | 487 kts | 59° |
| 2026-04-25 05:38 | 43.02516 | 3.45549 | 40120 ft | 487 kts | 59° |
| 2026-04-25 05:39 | 43.05894 | 3.53583 | 40124 ft | 487 kts | 59° |
| 2026-04-25 05:39 | 43.09265 | 3.61611 | 40119 ft | 487 kts | 59° |
| 2026-04-25 05:40 | 43.12638 | 3.69651 | 40121 ft | 487 kts | 59° |
| 2026-04-25 05:40 | 43.15997 | 3.77671 | 40115 ft | 487 kts | 59° |
| 2026-04-25 05:41 | 43.19200 | 3.85335 | 40105 ft | 487 kts | 59° |